Time;durP1;ratioP1;P1;durP2;ratioP2;P2;SDS_P1;SDS_P2;PMS_P1;PMS_P2;Temp;Humidity;BMP_temperature;BMP_pressure;BME280_temperature;BME280_humidity;BME280_pressure;Samples;Min_cycle;Max_cycle;Signal;HPM_P1;HPM_P2
2021/03/15 00:02:08;;;;;;;;;;;9.20;40.20;;;;;;4994511;28;19925;-74
2021/03/15 00:04:33;;;;;;;;;;;9.20;40.20;;;;;;4995394;28;19949;-74
2021/03/15 00:06:59;;;;;;;;;;;9.10;40.40;;;;;;4995516;28;20342;-74
2021/03/15 00:09:25;;;;;;;;;;;9.00;40.80;;;;;;4998758;28;19921;-74
2021/03/15 00:11:53;;;;;;;;;;;8.90;40.70;;;;;;4991794;28;19926;-74
2021/03/15 00:14:19;;;;;;;;;;;8.80;40.70;;;;;;4994137;28;19929;-74
2021/03/15 00:16:45;;;;;;;;;;;8.90;41.00;;;;;;4995032;28;19933;-73
2021/03/15 00:19:10;;;;;;;;;;;8.90;40.50;;;;;;4990820;28;20390;-74
2021/03/15 00:21:36;;;;;;;;;;;9.00;40.20;;;;;;4988448;28;19972;-74
2021/03/15 00:24:02;;;;;;;;;;;9.00;40.00;;;;;;4986429;28;19961;-74
2021/03/15 00:26:27;;;;;;;;;;;8.90;42.00;;;;;;4990711;28;19929;-74
2021/03/15 00:28:54;;;;;;;;;;;8.50;41.80;;;;;;4991801;28;19922;-74
2021/03/15 00:31:20;;;;;;;;;;;;;;;;;;4995172;28;19926;-75
2021/03/15 00:33:46;;;;;;;;;;;;;;;;;;4993674;28;19913;-74
2021/03/15 00:36:12;;;;;;;;;;;;;;;;;;4995075;28;20432;-73
2021/03/15 00:38:38;;;;;;;;;;;;;;;;;;4995048;28;19910;-74
2021/03/15 00:41:04;;;;;;;;;;;;;;;;;;4994758;28;19916;-74
2021/03/15 00:43:29;;;;;;;;;;;;;;;;;;4994024;28;19909;-75
2021/03/15 00:45:55;;;;;;;;;;;;;;;;;;4994899;28;20278;-74
2021/03/15 00:48:21;;;;;;;;;;;;;;;;;;4993810;28;19910;-74
2021/03/15 00:50:47;;;;;;;;;;;;;;;;;;4989923;28;20433;-74
2021/03/15 00:53:13;;;;;;;;;;;;;;;;;;4994974;28;19909;-74
2021/03/15 00:55:39;;;;;;;;;;;;;;;;;;4990124;28;19910;-74
2021/03/15 00:58:06;;;;;;;;;;;7.10;44.20;;;;;;4994590;28;19913;-74
2021/03/15 01:00:32;;;;;;;;;;;6.90;45.70;;;;;;4994747;28;19925;-74
2021/03/15 01:02:58;;;;;;;;;;;6.90;45.10;;;;;;4993219;28;19925;-74
2021/03/15 01:05:26;;;;;;;;;;;7.00;45.00;;;;;;4994616;28;19929;-74
2021/03/15 01:07:52;;;;;;;;;;;7.10;45.80;;;;;;4994194;28;19928;-74
2021/03/15 01:10:18;;;;;;;;;;;;;;;;;;4993072;28;19926;-74
2021/03/15 01:12:44;;;;;;;;;;;;;;;;;;4993317;28;19917;-74
2021/03/15 01:15:10;;;;;;;;;;;;;;;;;;4994356;28;19910;-74
2021/03/15 01:17:35;;;;;;;;;;;;;;;;;;4994574;28;19914;-74
2021/03/15 01:20:02;;;;;;;;;;;;;;;;;;4994506;28;19910;-75
2021/03/15 01:22:28;;;;;;;;;;;;;;;;;;4994098;28;20350;-74
2021/03/15 01:24:53;;;;;;;;;;;;;;;;;;4994262;28;19917;-74
2021/03/15 01:27:19;;;;;;;;;;;;;;;;;;4992722;28;19910;-74
2021/03/15 01:29:45;;;;;;;;;;;;;;;;;;4994286;28;19921;-74
2021/03/15 01:32:12;;;;;;;;;;;8.20;62.80;;;;;;4993960;28;19936;-74
2021/03/15 01:34:38;;;;;;;;;;;8.90;43.60;;;;;;4989479;28;19926;-74
2021/03/15 01:37:03;;;;;;;;;;;;;;;;;;4989500;28;20281;-74
2021/03/15 01:39:31;;;;;;;;;;;9.00;42.80;;;;;;4993879;28;19914;-74
2021/03/15 01:41:57;;;;;;;;;;;9.20;43.60;;;;;;5002493;28;19965;-73
2021/03/15 01:44:22;;;;;;;;;;;9.30;43.30;;;;;;4996210;28;20408;-74
2021/03/15 01:46:48;;;;;;;;;;;9.30;43.70;;;;;;5002670;28;19988;-73
2021/03/15 01:49:15;;;;;;;;;;;9.30;44.00;;;;;;4993941;28;20340;-74
2021/03/15 01:51:40;;;;;;;;;;;9.40;44.10;;;;;;4992749;28;20278;-74
2021/03/15 01:54:07;;;;;;;;;;;9.30;43.90;;;;;;4993884;28;19922;-74
2021/03/15 01:56:32;;;;;;;;;;;9.40;43.90;;;;;;4993773;28;19921;-74
2021/03/15 01:58:58;;;;;;;;;;;9.40;44.40;;;;;;4993894;28;19928;-74
2021/03/15 02:01:24;;;;;;;;;;;9.40;44.00;;;;;;4996284;28;19921;-74
2021/03/15 02:03:50;;;;;;;;;;;9.40;43.90;;;;;;5008089;23;20047;-73
2021/03/15 02:06:16;;;;;;;;;;;9.40;44.20;;;;;;4980708;28;19934;-73
2021/03/15 02:08:42;;;;;;;;;;;9.40;44.60;;;;;;4991245;28;19926;-73
2021/03/15 02:11:13;;;;;;;;;;;9.30;44.60;;;;;;4974056;28;19923;-73
2021/03/15 02:13:45;;;;;;;;;;;9.30;44.70;;;;;;4972864;28;20374;-73
2021/03/15 02:16:15;;;;;;;;;;;9.30;44.80;;;;;;4989229;28;19922;-73
2021/03/15 02:18:46;;;;;;;;;;;9.30;44.40;;;;;;4974134;28;20369;-73
2021/03/15 02:21:26;;;;;;;;;;;9.30;44.40;;;;;;4987187;28;19965;-73
2021/03/15 02:23:57;;;;;;;;;;;9.30;44.10;;;;;;4988876;28;19968;-72
2021/03/15 02:26:32;;;;;;;;;;;9.30;44.50;;;;;;4974206;28;19926;-73
2021/03/15 02:29:05;;;;;;;;;;;9.30;45.00;;;;;;4988774;28;20017;-73
2021/03/15 02:31:57;;;;;;;;;;;9.20;44.80;;;;;;4977999;28;19944;-73
2021/03/15 02:34:51;;;;;;;;;;;9.30;44.90;;;;;;4951621;28;20028;-73
2021/03/15 02:37:19;;;;;;;;;;;9.20;45.20;;;;;;4992776;28;20351;-73
2021/03/15 02:39:48;;;;;;;;;;;9.10;45.70;;;;;;4977493;28;19956;-73
2021/03/15 02:42:15;;;;;;;;;;;9.10;46.30;;;;;;4981862;28;19931;-73
2021/03/15 02:44:43;;;;;;;;;;;9.10;46.00;;;;;;4977540;28;20309;-73
2021/03/15 02:47:11;;;;;;;;;;;9.00;45.60;;;;;;4976179;28;19929;-73
2021/03/15 02:49:37;;;;;;;;;;;9.00;46.10;;;;;;4992131;28;19961;-73
2021/03/15 02:52:06;;;;;;;;;;;9.00;46.50;;;;;;4977270;28;19922;-73
2021/03/15 02:54:32;;;;;;;;;;;8.90;46.20;;;;;;4992053;28;19962;-73
2021/03/15 02:56:59;;;;;;;;;;;9.00;45.50;;;;;;4976034;28;19953;-73
2021/03/15 02:59:25;;;;;;;;;;;8.90;45.30;;;;;;4977208;28;20298;-73
2021/03/15 03:01:52;;;;;;;;;;;9.00;45.40;;;;;;4977161;28;20317;-73
2021/03/15 03:04:18;;;;;;;;;;;9.00;45.60;;;;;;4989098;28;19926;-72
2021/03/15 03:06:44;;;;;;;;;;;9.00;45.80;;;;;;4993821;28;19942;-73
2021/03/15 03:09:13;;;;;;;;;;;9.10;45.40;;;;;;4994881;28;19968;-73
2021/03/15 03:11:38;;;;;;;;;;;9.10;45.50;;;;;;4996217;28;20293;-72
2021/03/15 03:14:05;;;;;;;;;;;9.10;45.50;;;;;;4996999;28;19928;-71
2021/03/15 03:16:34;;;;;;;;;;;9.20;45.40;;;;;;5011325;28;19973;-71
2021/03/15 03:19:01;;;;;;;;;;;9.20;45.00;;;;;;4996333;28;19922;-71
2021/03/15 03:21:27;;;;;;;;;;;9.20;44.50;;;;;;4996258;28;20397;-71
2021/03/15 03:23:54;;;;;;;;;;;9.40;44.70;;;;;;4995551;28;20013;-71
2021/03/15 03:26:23;;;;;;;;;;;9.30;44.90;;;;;;4996082;28;19968;-71
2021/03/15 03:28:49;;;;;;;;;;;9.30;45.10;;;;;;4996515;28;20404;-71
2021/03/15 03:31:15;;;;;;;;;;;9.20;44.70;;;;;;4996155;28;19932;-71
2021/03/15 03:33:41;;;;;;;;;;;9.30;44.70;;;;;;4994408;28;19969;-71
2021/03/15 03:36:07;;;;;;;;;;;9.30;44.80;;;;;;4995953;28;19974;-71
2021/03/15 03:38:33;;;;;;;;;;;9.30;44.60;;;;;;4995950;28;20332;-72
2021/03/15 03:40:58;;;;;;;;;;;9.30;44.70;;;;;;4995872;28;19922;-71
2021/03/15 03:43:25;;;;;;;;;;;9.30;44.20;;;;;;4995938;28;19969;-72
2021/03/15 03:45:51;;;;;;;;;;;9.30;44.60;;;;;;4995434;28;19965;-72
2021/03/15 03:48:16;;;;;;;;;;;9.40;44.70;;;;;;4995836;28;19964;-71
2021/03/15 03:50:42;;;;;;;;;;;9.30;44.80;;;;;;4995621;28;19926;-71
2021/03/15 03:53:10;;;;;;;;;;;9.20;45.10;;;;;;4995595;28;19922;-71
2021/03/15 03:55:40;;;;;;;;;;;9.30;45.00;;;;;;5010667;28;20343;-71
2021/03/15 03:58:07;;;;;;;;;;;9.20;45.10;;;;;;5009952;28;20400;-71
2021/03/15 04:00:34;;;;;;;;;;;9.20;44.80;;;;;;4995456;28;19921;-71
2021/03/15 04:03:06;;;;;;;;;;;9.30;44.70;;;;;;5010455;28;20352;-71
2021/03/15 04:05:32;;;;;;;;;;;9.20;45.00;;;;;;5010540;28;19925;-72
2021/03/15 04:08:01;;;;;;;;;;;9.30;45.10;;;;;;4995258;28;19957;-71
2021/03/15 04:10:28;;;;;;;;;;;9.30;44.50;;;;;;4995434;28;20324;-72
2021/03/15 04:12:56;;;;;;;;;;;9.30;44.80;;;;;;4994961;28;19925;-72
2021/03/15 04:15:22;;;;;;;;;;;9.20;45.20;;;;;;4995367;28;19922;-71
2021/03/15 04:17:49;;;;;;;;;;;9.20;45.30;;;;;;4995353;28;19922;-71
2021/03/15 04:20:17;;;;;;;;;;;9.20;45.30;;;;;;5009990;28;19926;-71
2021/03/15 04:22:46;;;;;;;;;;;9.20;45.20;;;;;;4995157;28;19944;-70
2021/03/15 04:25:12;;;;;;;;;;;9.20;45.40;;;;;;5009884;28;19922;-70
2021/03/15 04:27:41;;;;;;;;;;;9.20;44.90;;;;;;4995090;28;19922;-70
2021/03/15 04:30:07;;;;;;;;;;;9.30;45.10;;;;;;4994833;28;20012;-71
2021/03/15 04:32:33;;;;;;;;;;;9.30;45.00;;;;;;5010428;28;20016;-72
2021/03/15 04:35:00;;;;;;;;;;;9.20;45.50;;;;;;5009743;28;19969;-71
2021/03/15 04:37:26;;;;;;;;;;;9.20;45.80;;;;;;4994936;28;20026;-72
2021/03/15 04:39:53;;;;;;;;;;;9.10;45.70;;;;;;4995111;28;19929;-69
2021/03/15 04:42:20;;;;;;;;;;;9.10;45.70;;;;;;4994735;28;19929;-71
2021/03/15 04:44:46;;;;;;;;;;;9.20;45.80;;;;;;4994759;28;19925;-71
2021/03/15 04:47:12;;;;;;;;;;;9.20;45.70;;;;;;4994590;28;20012;-72
2021/03/15 04:49:38;;;;;;;;;;;9.20;45.90;;;;;;4995079;28;19945;-71
2021/03/15 04:52:06;;;;;;;;;;;9.20;46.00;;;;;;4994371;28;19922;-71
2021/03/15 04:54:31;;;;;;;;;;;9.20;45.80;;;;;;4994602;28;19932;-71
2021/03/15 04:56:59;;;;;;;;;;;9.20;45.90;;;;;;5009756;28;20300;-72
2021/03/15 04:59:26;;;;;;;;;;;9.20;45.90;;;;;;4993582;28;20012;-71
2021/03/15 05:01:52;;;;;;;;;;;9.20;45.60;;;;;;4994345;28;20369;-72
2021/03/15 05:04:19;;;;;;;;;;;9.20;46.10;;;;;;4994227;28;20020;-71
2021/03/15 05:06:45;;;;;;;;;;;9.20;46.20;;;;;;5009307;28;19961;-70
2021/03/15 05:09:13;;;;;;;;;;;9.20;46.40;;;;;;4994357;28;19921;-71
2021/03/15 05:11:40;;;;;;;;;;;9.20;46.10;;;;;;4994139;28;20460;-72
2021/03/15 05:14:06;;;;;;;;;;;9.20;45.90;;;;;;4994383;28;19925;-71
2021/03/15 05:16:34;;;;;;;;;;;9.20;46.30;;;;;;5009097;28;20480;-70
2021/03/15 05:19:00;;;;;;;;;;;9.20;46.10;;;;;;4994338;28;19921;-72
2021/03/15 05:21:30;;;;;;;;;;;9.20;46.50;;;;;;4993759;28;19925;-72
2021/03/15 05:23:56;;;;;;;;;;;9.20;46.40;;;;;;5009343;28;19922;-71
2021/03/15 05:26:23;;;;;;;;;;;9.20;46.30;;;;;;4995342;28;20428;-72
2021/03/15 05:28:49;;;;;;;;;;;9.20;46.20;;;;;;4997850;28;20009;-71
2021/03/15 05:31:16;;;;;;;;;;;9.20;46.10;;;;;;4994806;28;20020;-71
2021/03/15 05:33:42;;;;;;;;;;;9.30;46.30;;;;;;5005784;28;19922;-71
2021/03/15 05:36:08;;;;;;;;;;;9.20;46.20;;;;;;4992521;28;19922;-72
2021/03/15 05:38:34;;;;;;;;;;;9.20;46.40;;;;;;5008986;28;19928;-71
2021/03/15 05:41:01;;;;;;;;;;;9.20;46.40;;;;;;4995194;28;19921;-71
2021/03/15 05:43:42;;;;;;;;;;;9.30;46.50;;;;;;4994120;28;20016;-72
2021/03/15 05:46:23;;;;;;;;;;;9.30;46.80;;;;;;4992558;28;19932;-72
2021/03/15 05:49:19;;;;;;;;;;;9.30;46.90;;;;;;4989540;28;19921;-72
2021/03/15 05:52:11;;;;;;;;;;;9.30;46.80;;;;;;4991738;28;20020;-72
2021/03/15 05:54:58;;;;;;;;;;;9.30;47.40;;;;;;5008947;28;20008;-71
2021/03/15 05:57:42;;;;;;;;;;;9.20;47.70;;;;;;5008942;28;19924;-72
2021/03/15 06:00:12;;;;;;;;;;;9.20;48.40;;;;;;5008869;28;20373;-71
2021/03/15 06:02:59;;;;;;;;;;;9.10;48.60;;;;;;4991760;28;19938;-71
2021/03/15 06:05:25;;;;;;;;;;;9.10;49.00;;;;;;4990292;28;19926;-70
2021/03/15 06:07:51;;;;;;;;;;;9.10;49.70;;;;;;5008078;28;19925;-71
2021/03/15 06:10:21;;;;;;;;;;;9.10;50.00;;;;;;4994199;28;19953;-71
2021/03/15 06:12:49;;;;;;;;;;;9.10;50.20;;;;;;4996535;28;19921;-71
2021/03/15 06:15:19;;;;;;;;;;;9.00;50.60;;;;;;5011955;28;19921;-71
2021/03/15 06:17:44;;;;;;;;;;;9.00;51.00;;;;;;4996877;28;19948;-72
2021/03/15 06:20:12;;;;;;;;;;;9.00;51.20;;;;;;4995167;28;19921;-72
2021/03/15 06:22:38;;;;;;;;;;;9.00;51.50;;;;;;5011745;28;19922;-71
2021/03/15 06:25:04;;;;;;;;;;;8.90;52.10;;;;;;5011835;28;20441;-71
2021/03/15 06:27:30;;;;;;;;;;;9.00;52.10;;;;;;4997055;28;19922;-71
2021/03/15 06:29:56;;;;;;;;;;;9.00;52.50;;;;;;5011696;28;19976;-71
2021/03/15 06:32:24;;;;;;;;;;;9.00;52.50;;;;;;4996498;28;19933;-72
2021/03/15 06:34:52;;;;;;;;;;;8.90;52.80;;;;;;4996979;28;19938;-72
2021/03/15 06:37:18;;;;;;;;;;;9.00;52.90;;;;;;4995784;28;19929;-71
2021/03/15 06:39:44;;;;;;;;;;;9.00;52.70;;;;;;4996577;28;20369;-71
2021/03/15 06:42:10;;;;;;;;;;;9.00;53.40;;;;;;4999229;28;19976;-72
2021/03/15 06:44:38;;;;;;;;;;;8.90;53.20;;;;;;4995465;28;19931;-72
2021/03/15 06:47:04;;;;;;;;;;;8.90;53.50;;;;;;4996320;28;19921;-72
2021/03/15 06:49:31;;;;;;;;;;;8.90;53.60;;;;;;4996954;28;19928;-71
2021/03/15 06:52:00;;;;;;;;;;;9.00;53.30;;;;;;4993449;28;19973;-70
2021/03/15 06:54:28;;;;;;;;;;;9.00;53.40;;;;;;5012025;28;20439;-71
2021/03/15 06:57:08;;;;;;;;;;;9.10;53.40;;;;;;5011727;28;19921;-72
2021/03/15 06:59:44;;;;;;;;;;;9.10;53.70;;;;;;4991746;28;19921;-71
2021/03/15 07:02:09;;;;;;;;;;;9.10;53.40;;;;;;5011791;28;19929;-71
2021/03/15 07:04:36;;;;;;;;;;;9.10;53.40;;;;;;4996480;28;20385;-71
2021/03/15 07:07:03;;;;;;;;;;;9.10;54.10;;;;;;5011451;28;19960;-71
2021/03/15 07:09:32;;;;;;;;;;;9.20;53.70;;;;;;4996319;28;19929;-71
2021/03/15 07:12:00;;;;;;;;;;;9.20;54.10;;;;;;4996384;28;19925;-71
2021/03/15 07:14:26;;;;;;;;;;;9.20;54.50;;;;;;5011539;28;20304;-71
2021/03/15 07:16:56;;;;;;;;;;;9.20;54.20;;;;;;4996116;28;19922;-71
2021/03/15 07:19:22;;;;;;;;;;;9.20;54.10;;;;;;4996288;28;19922;-71
2021/03/15 07:21:49;;;;;;;;;;;9.40;53.70;;;;;;5010702;28;19922;-70
2021/03/15 07:24:15;;;;;;;;;;;9.40;54.10;;;;;;4996315;28;19967;-69
2021/03/15 07:26:45;;;;;;;;;;;9.50;54.00;;;;;;4995833;28;19928;-69
2021/03/15 07:29:12;;;;;;;;;;;9.60;53.80;;;;;;4996233;28;19922;-71
2021/03/15 07:31:37;;;;;;;;;;;9.70;53.50;;;;;;4995720;28;19926;-70
2021/03/15 07:34:11;;;;;;;;;;;9.80;53.30;;;;;;4996244;28;19921;-70
2021/03/15 07:36:45;;;;;;;;;;;9.90;53.60;;;;;;5011096;28;19965;-69
2021/03/15 07:39:11;;;;;;;;;;;;;;;;;;4992488;28;19933;-70
2021/03/15 07:41:38;;;;;;;;;;;10.10;53.40;;;;;;4995912;28;19914;-70
2021/03/15 07:44:14;;;;;;;;;;;10.20;52.50;;;;;;4995986;28;20381;-71
2021/03/15 07:46:39;;;;;;;;;;;10.20;52.50;;;;;;4995801;28;19926;-71
2021/03/15 07:49:05;;;;;;;;;;;10.30;53.20;;;;;;5010720;28;19928;-71
2021/03/15 07:51:31;;;;;;;;;;;10.40;52.30;;;;;;4995822;28;19929;-71
2021/03/15 07:54:01;;;;;;;;;;;10.50;52.70;;;;;;4995654;28;19929;-71
2021/03/15 07:56:27;;;;;;;;;;;10.50;51.50;;;;;;4995714;28;19979;-72
2021/03/15 07:58:54;;;;;;;;;;;10.60;52.20;;;;;;5010484;28;20336;-72
2021/03/15 08:01:20;;;;;;;;;;;10.70;51.70;;;;;;4995613;28;19925;-71
2021/03/15 08:03:46;;;;;;;;;;;10.80;55.40;;;;;;4995171;28;19925;-71
2021/03/15 08:06:12;;;;;;;;;;;10.80;51.00;;;;;;4995271;28;19922;-71
2021/03/15 08:08:38;;;;;;;;;;;11.00;49.90;;;;;;4995511;28;19922;-72
2021/03/15 08:11:05;;;;;;;;;;;11.10;50.60;;;;;;4994988;28;19926;-71
2021/03/15 08:13:38;;;;;;;;;;;11.10;50.20;;;;;;4995241;28;19922;-72
2021/03/15 08:16:05;;;;;;;;;;;11.10;51.30;;;;;;4995462;28;19921;-72
2021/03/15 08:18:32;;;;;;;;;;;11.30;50.80;;;;;;4995117;28;19932;-71
2021/03/15 08:21:01;;;;;;;;;;;11.40;50.90;;;;;;4995187;28;19926;-71
2021/03/15 08:23:28;;;;;;;;;;;11.40;50.40;;;;;;4995075;28;19925;-72
2021/03/15 08:26:00;;;;;;;;;;;11.40;50.40;;;;;;4995172;28;20297;-72
2021/03/15 08:28:26;;;;;;;;;;;11.40;49.90;;;;;;5009975;28;19922;-72
2021/03/15 08:30:54;;;;;;;;;;;11.50;50.50;;;;;;4994948;28;19976;-71
2021/03/15 08:33:22;;;;;;;;;;;11.60;49.10;;;;;;5008473;28;20202;-72
2021/03/15 08:35:52;;;;;;;;;;;11.90;67.90;;;;;;4995155;28;20016;-72
2021/03/15 08:38:18;;;;;;;;;;;;;;;;;;4994918;28;19922;-72
2021/03/15 08:40:51;;;;;;;;;;;11.90;50.00;;;;;;4994679;28;19916;-71
2021/03/15 08:43:44;;;;;;;;;;;12.10;49.00;;;;;;4994856;28;19926;-71
2021/03/15 08:46:11;;;;;;;;;;;12.20;49.10;;;;;;4988498;28;20333;-72
2021/03/15 08:48:51;;;;;;;;;;;12.30;49.60;;;;;;4994421;28;19933;-73
2021/03/15 08:51:32;;;;;;;;;;;12.30;48.90;;;;;;5009962;28;19936;-72
2021/03/15 08:53:58;;;;;;;;;;;12.30;50.00;;;;;;4994320;28;20468;-71
2021/03/15 08:56:34;;;;;;;;;;;12.40;49.30;;;;;;4994689;28;20378;-71
2021/03/15 08:59:00;;;;;;;;;;;12.60;49.50;;;;;;4994379;28;20377;-72
2021/03/15 09:01:26;;;;;;;;;;;;;;;;;;5009660;28;19922;-71
2021/03/15 09:03:53;;;;;;;;;;;12.80;49.00;;;;;;4994202;28;19976;-71
2021/03/15 09:06:49;;;;;;;;;;;12.80;49.20;;;;;;4994294;28;19991;-71
2021/03/15 09:09:24;;;;;;;;;;;12.60;49.50;;;;;;4958821;28;20453;-71
2021/03/15 09:11:50;;;;;;;;;;;12.40;49.80;;;;;;4998726;28;19926;-73
2021/03/15 09:14:36;;;;;;;;;;;12.40;50.50;;;;;;5009485;28;20292;-71
2021/03/15 09:17:20;;;;;;;;;;;12.40;50.00;;;;;;4991844;28;19928;-72
2021/03/15 09:19:47;;;;;;;;;;;12.30;49.20;;;;;;4994065;28;19917;-72
2021/03/15 09:22:22;;;;;;;;;;;12.10;52.00;;;;;;5009459;28;19965;-72
2021/03/15 09:24:50;;;;;;;;;;;12.00;52.00;;;;;;4994144;28;19968;-72
2021/03/15 09:27:27;;;;;;;;;;;12.10;52.40;;;;;;4994216;28;19922;-72
2021/03/15 09:29:53;;;;;;;;;;;12.10;51.60;;;;;;4994207;28;19937;-72
2021/03/15 09:32:25;;;;;;;;;;;12.10;52.30;;;;;;5009539;28;20310;-72
2021/03/15 09:34:51;;;;;;;;;;;12.10;53.40;;;;;;4994200;28;20017;-72
2021/03/15 09:37:17;;;;;;;;;;;12.20;52.10;;;;;;5007237;28;19937;-71
2021/03/15 09:39:44;;;;;;;;;;;12.20;52.80;;;;;;4994209;28;19922;-71
2021/03/15 09:42:10;;;;;;;;;;;12.10;53.50;;;;;;4994088;28;20316;-71
2021/03/15 09:44:40;;;;;;;;;;;12.10;53.90;;;;;;5010846;28;19928;-72
2021/03/15 09:47:06;;;;;;;;;;;12.10;55.50;;;;;;4998072;28;20390;-71
2021/03/15 09:49:36;;;;;;;;;;;12.10;54.20;;;;;;4998318;28;19928;-72
2021/03/15 09:52:11;;;;;;;;;;;12.20;54.40;;;;;;5012779;28;19926;-72
2021/03/15 09:54:40;;;;;;;;;;;12.20;54.20;;;;;;4997932;28;19933;-72
2021/03/15 09:57:06;;;;;;;;;;;12.20;56.00;;;;;;5012833;28;20386;-72
2021/03/15 09:59:31;;;;;;;;;;;12.20;54.50;;;;;;4997704;28;19968;-71
2021/03/15 10:01:57;;;;;;;;;;;12.20;54.50;;;;;;4997875;28;19968;-72
2021/03/15 10:04:28;;;;;;;;;;;12.10;54.10;;;;;;4997347;28;19926;-71
2021/03/15 10:06:54;;;;;;;;;;;12.10;55.30;;;;;;5012851;28;19929;-72
2021/03/15 10:09:21;;;;;;;;;;;12.00;54.70;;;;;;4997451;28;19922;-72
2021/03/15 10:11:46;;;;;;;;;;;11.90;55.40;;;;;;4997316;28;19996;-72
2021/03/15 10:14:13;;;;;;;;;;;11.90;55.60;;;;;;5012761;28;19922;-71
2021/03/15 10:16:50;;;;;;;;;;;11.90;56.30;;;;;;4997430;28;19984;-72
2021/03/15 10:19:20;;;;;;;;;;;12.00;57.00;;;;;;5012674;28;19921;-72
2021/03/15 10:21:45;;;;;;;;;;;12.10;54.90;;;;;;4997372;28;20365;-72
2021/03/15 10:24:11;;;;;;;;;;;12.20;56.30;;;;;;5012526;28;19922;-72
2021/03/15 10:26:38;;;;;;;;;;;12.30;55.90;;;;;;4997215;28;19926;-71
2021/03/15 10:29:03;;;;;;;;;;;12.50;55.40;;;;;;4997352;28;20016;-71
2021/03/15 10:31:29;;;;;;;;;;;12.70;54.90;;;;;;4997318;28;20036;-72
2021/03/15 10:33:55;;;;;;;;;;;13.00;55.30;;;;;;4996969;28;19922;-71
2021/03/15 10:36:21;;;;;;;;;;;13.10;52.20;;;;;;4997395;28;20362;-71
2021/03/15 10:38:47;;;;;;;;;;;13.20;54.00;;;;;;5011982;28;19969;-71
2021/03/15 10:41:13;;;;;;;;;;;13.20;52.20;;;;;;4997188;28;19967;-71
2021/03/15 10:43:41;;;;;;;;;;;13.10;52.40;;;;;;5011928;28;19965;-72
2021/03/15 10:46:13;;;;;;;;;;;13.10;53.80;;;;;;4990898;28;19936;-72
2021/03/15 10:48:39;;;;;;;;;;;13.10;53.80;;;;;;4991689;28;19921;-72
2021/03/15 10:51:04;;;;;;;;;;;13.20;54.10;;;;;;4996979;28;19988;-71
2021/03/15 10:53:32;;;;;;;;;;;13.10;54.50;;;;;;4996987;28;19961;-72
2021/03/15 10:55:58;;;;;;;;;;;12.80;54.30;;;;;;4995779;28;19926;-70
2021/03/15 10:58:23;;;;;;;;;;;12.80;54.60;;;;;;5005441;28;19922;-72
2021/03/15 11:00:51;;;;;;;;;;;12.70;54.10;;;;;;5011728;28;19953;-70
2021/03/15 11:03:20;;;;;;;;;;;12.70;54.50;;;;;;4996490;28;19933;-72
2021/03/15 11:05:46;;;;;;;;;;;12.80;55.10;;;;;;5011391;28;19921;-71
2021/03/15 11:08:17;;;;;;;;;;;12.90;55.30;;;;;;4996639;28;19976;-72
2021/03/15 11:10:43;;;;;;;;;;;13.00;53.80;;;;;;4996544;28;19929;-72
2021/03/15 11:13:14;;;;;;;;;;;13.10;53.70;;;;;;4996219;28;19922;-72
2021/03/15 11:15:40;;;;;;;;;;;13.00;55.00;;;;;;5011840;28;20290;-71
2021/03/15 11:18:08;;;;;;;;;;;13.10;53.40;;;;;;4996276;28;19922;-72
2021/03/15 11:20:36;;;;;;;;;;;13.20;54.00;;;;;;4996489;28;19926;-71
2021/03/15 11:23:01;;;;;;;;;;;13.10;54.80;;;;;;4996400;28;19945;-71
2021/03/15 11:25:28;;;;;;;;;;;13.10;54.00;;;;;;4996161;28;19929;-71
2021/03/15 11:27:55;;;;;;;;;;;13.10;54.00;;;;;;4996197;28;19926;-71
2021/03/15 11:30:24;;;;;;;;;;;13.20;55.10;;;;;;4996036;28;19922;-71
2021/03/15 11:32:57;;;;;;;;;;;13.50;54.40;;;;;;4996048;28;19925;-71
2021/03/15 11:35:24;;;;;;;;;;;13.70;51.90;;;;;;4996133;28;19922;-72
2021/03/15 11:37:50;;;;;;;;;;;13.70;52.70;;;;;;4989830;28;19930;-71
2021/03/15 11:40:25;;;;;;;;;;;13.70;51.70;;;;;;4993377;28;19922;-71
2021/03/15 11:42:53;;;;;;;;;;;13.70;51.90;;;;;;4996001;28;19973;-72
2021/03/15 11:45:19;;;;;;;;;;;13.60;53.30;;;;;;5005000;28;19971;-73
2021/03/15 11:47:45;;;;;;;;;;;;;;;;;;5011747;28;19925;-72
2021/03/15 11:50:11;;;;;;;;;;;13.70;54.50;;;;;;4995840;28;19980;-72
2021/03/15 11:52:40;;;;;;;;;;;14.00;53.00;;;;;;4998050;28;20389;-72
2021/03/15 11:55:06;;;;;;;;;;;;;;;;;;4992527;28;19926;-71
2021/03/15 11:57:32;;;;;;;;;;;14.00;51.70;;;;;;4997706;28;20365;-71
2021/03/15 11:59:57;;;;;;;;;;;14.00;52.40;;;;;;4994939;28;19929;-72
2021/03/15 12:02:23;;;;;;;;;;;;;;;;;;4994463;28;19972;-72
2021/03/15 12:04:49;;;;;;;;;;;;;;;;;;4994712;28;19921;-71
2021/03/15 12:07:15;;;;;;;;;;;;;;;;;;4994517;28;20016;-72
2021/03/15 12:09:41;;;;;;;;;;;;;;;;;;4994731;28;20370;-71
2021/03/15 12:12:07;;;;;;;;;;;;;;;;;;4996520;28;20290;-71
2021/03/15 12:14:33;;;;;;;;;;;;;;;;;;4997533;28;19940;-72
2021/03/15 12:16:59;;;;;;;;;;;;;;;;;;4994636;28;19933;-72
2021/03/15 12:19:25;;;;;;;;;;;;;;;;;;4994500;28;20000;-72
2021/03/15 12:21:51;;;;;;;;;;;;;;;;;;4994384;28;19910;-71
2021/03/15 12:24:17;;;;;;;;;;;;;;;;;;4994566;28;19913;-72
2021/03/15 12:26:43;;;;;;;;;;;;;;;;;;4994147;28;20041;-72
2021/03/15 12:29:09;;;;;;;;;;;;;;;;;;4994356;28;19910;-71
2021/03/15 12:31:35;;;;;;;;;;;;;;;;;;4994211;28;19924;-72
2021/03/15 12:34:01;;;;;;;;;;;;;;;;;;4994327;28;19992;-71
2021/03/15 12:36:27;;;;;;;;;;;;;;;;;;4994416;28;19910;-72
2021/03/15 12:38:52;;;;;;;;;;;;;;;;;;4994194;28;19910;-72
2021/03/15 12:41:19;;;;;;;;;;;14.10;53.10;;;;;;4997274;28;19910;-71
2021/03/15 12:43:45;;;;;;;;;;;;;;;;;;4994371;28;20592;-71
2021/03/15 12:46:18;;;;;;;;;;;;;;;;;;4993767;28;19910;-72
2021/03/15 12:48:43;;;;;;;;;;;;;;;;;;4993359;28;19933;-72
2021/03/15 12:51:09;;;;;;;;;;;;;;;;;;4993985;28;19914;-71
2021/03/15 12:53:35;;;;;;;;;;;;;;;;;;4993913;28;19961;-72
2021/03/15 12:56:01;;;;;;;;;;;;;;;;;;4993800;28;20345;-72
2021/03/15 12:58:27;;;;;;;;;;;;;;;;;;4992909;28;19949;-71
2021/03/15 13:00:54;;;;;;;;;;;14.50;51.90;;;;;;4991780;28;20388;-72
2021/03/15 13:03:19;;;;;;;;;;;14.60;49.70;;;;;;4992956;28;19968;-72
2021/03/15 13:05:45;;;;;;;;;;;14.70;49.40;;;;;;4993843;28;20393;-72
2021/03/15 13:08:11;;;;;;;;;;;14.70;50.10;;;;;;4994168;28;20020;-72
2021/03/15 13:10:36;;;;;;;;;;;14.70;49.60;;;;;;4994649;28;20291;-72
2021/03/15 13:13:02;;;;;;;;;;;14.80;49.70;;;;;;5004119;28;19972;-72
2021/03/15 13:15:28;;;;;;;;;;;;;;;;;;5009477;28;19922;-72
2021/03/15 13:17:55;;;;;;;;;;;15.10;72.80;;;;;;4994331;28;19910;-72
2021/03/15 13:20:21;;;;;;;;;;;15.20;49.20;;;;;;4993729;28;19926;-72
2021/03/15 13:22:46;;;;;;;;;;;15.30;49.40;;;;;;4994287;28;19944;-72
2021/03/15 13:25:12;;;;;;;;;;;15.20;49.30;;;;;;4994092;28;20016;-72
2021/03/15 13:27:39;;;;;;;;;;;15.20;48.60;;;;;;4994175;28;19961;-72
2021/03/15 13:30:05;;;;;;;;;;;;;;;;;;4993879;28;19929;-72
2021/03/15 13:32:31;;;;;;;;;;;;;;;;;;4990279;28;19922;-72
2021/03/15 13:34:57;;;;;;;;;;;;;;;;;;4990292;28;19992;-72
2021/03/15 13:37:23;;;;;;;;;;;;;;;;;;5005070;28;19910;-72
2021/03/15 13:39:49;;;;;;;;;;;;;;;;;;4990328;28;19918;-72
2021/03/15 13:42:15;;;;;;;;;;;;;;;;;;4998510;28;20294;-72
2021/03/15 13:44:41;;;;;;;;;;;15.30;49.60;;;;;;4998913;28;19914;-72
2021/03/15 13:47:07;;;;;;;;;;;15.60;46.70;;;;;;4991016;28;19940;-72
2021/03/15 13:49:33;;;;;;;;;;;15.60;47.80;;;;;;4990979;28;20020;-72
2021/03/15 13:51:58;;;;;;;;;;;15.50;47.90;;;;;;4990014;28;19926;-73
2021/03/15 13:54:24;;;;;;;;;;;15.50;47.40;;;;;;4991978;28;20270;-72
2021/03/15 13:56:50;;;;;;;;;;;15.50;47.00;;;;;;5000595;28;19922;-72
2021/03/15 13:59:15;;;;;;;;;;;15.50;46.80;;;;;;4991280;28;19922;-72
2021/03/15 14:01:42;;;;;;;;;;;15.40;47.80;;;;;;5000523;28;19922;-73
2021/03/15 14:04:08;;;;;;;;;;;15.40;46.50;;;;;;4988496;28;19934;-71
2021/03/15 14:06:33;;;;;;;;;;;15.30;47.20;;;;;;5000704;28;19972;-72
2021/03/15 14:08:59;;;;;;;;;;;15.30;46.40;;;;;;4991278;28;19988;-72
2021/03/15 14:11:25;;;;;;;;;;;15.40;45.60;;;;;;4991278;28;20337;-72
2021/03/15 14:13:51;;;;;;;;;;;15.30;46.80;;;;;;4991129;28;19960;-72
2021/03/15 14:16:16;;;;;;;;;;;15.40;45.80;;;;;;4991259;28;19972;-72
2021/03/15 14:18:43;;;;;;;;;;;15.40;45.70;;;;;;4999749;28;19933;-72
2021/03/15 14:21:09;;;;;;;;;;;15.40;46.20;;;;;;4991232;28;19933;-72
2021/03/15 14:23:34;;;;;;;;;;;15.40;44.90;;;;;;4990980;28;19973;-72
2021/03/15 14:26:00;;;;;;;;;;;15.40;45.70;;;;;;4989379;28;19922;-72
2021/03/15 14:28:26;;;;;;;;;;;15.40;44.60;;;;;;4998344;28;19922;-72
2021/03/15 14:30:52;;;;;;;;;;;15.50;44.70;;;;;;4990251;28;19921;-72
2021/03/15 14:33:18;;;;;;;;;;;15.50;45.50;;;;;;4994907;28;19936;-73
2021/03/15 14:35:45;;;;;;;;;;;15.50;43.30;;;;;;4993573;28;19922;-72
2021/03/15 14:38:10;;;;;;;;;;;15.50;44.10;;;;;;4994150;28;19925;-72
2021/03/15 14:40:36;;;;;;;;;;;15.50;44.30;;;;;;4994448;28;19945;-72
2021/03/15 14:43:02;;;;;;;;;;;15.40;44.10;;;;;;5002971;28;19930;-71
2021/03/15 14:45:27;;;;;;;;;;;15.50;43.50;;;;;;4993338;28;19965;-72
2021/03/15 14:47:53;;;;;;;;;;;15.40;44.60;;;;;;5001388;28;20020;-72